Time;durP1;ratioP1;P1;durP2;ratioP2;P2;SDS_P1;SDS_P2;PMS_P1;PMS_P2;Temp;Humidity;BMP_temperature;BMP_pressure;BME280_temperature;BME280_humidity;BME280_pressure;Samples;Min_cycle;Max_cycle;Signal;HPM_P1;HPM_P2
2021/10/01 00:04:27;;;;;;;3.92;1.10;;;10.50;99.90;;;;;;6668840;89;20192;-78
2021/10/01 00:14:28;;;;;;;3.03;1.00;;;10.50;99.90;;;;;;6672886;89;20280;-76
2021/10/01 00:24:30;;;;;;;4.05;1.00;;;10.40;99.90;;;;;;6687074;88;20810;-77
2021/10/01 00:34:31;;;;;;;2.30;0.80;;;10.40;99.90;;;;;;6672961;89;20178;-76
2021/10/01 00:44:31;;;;;;;3.65;0.80;;;10.40;99.90;;;;;;6672284;89;20399;-76
2021/10/01 00:54:32;;;;;;;2.90;0.70;;;10.50;99.90;;;;;;6689842;88;20215;-76
2021/10/01 01:04:33;;;;;;;2.08;0.70;;;10.50;99.90;;;;;;6671527;89;20218;-77
2021/10/01 01:14:55;;;;;;;4.82;1.15;;;10.50;99.90;;;;;;6671095;89;20215;-76
2021/10/01 01:25:23;;;;;;;3.85;0.80;;;10.50;99.90;;;;;;6654421;89;20676;-77
2021/10/01 01:35:28;;;;;;;3.67;0.90;;;10.50;99.90;;;;;;6662637;88;20211;-77
2021/10/01 01:45:29;;;;;;;5.12;0.98;;;10.60;99.90;;;;;;6680511;88;20677;-76
2021/10/01 01:55:30;;;;;;;3.45;0.90;;;10.50;99.90;;;;;;6671583;89;20218;-76
2021/10/01 02:05:31;;;;;;;2.90;0.90;;;10.50;99.90;;;;;;6671695;89;20182;-76
2021/10/01 02:15:33;;;;;;;3.72;0.90;;;10.40;99.90;;;;;;6670791;89;20187;-77
2021/10/01 02:35:57;;;;;;;7.75;1.20;;;10.40;99.90;;;;;;6670605;89;20239;-77
2021/10/01 02:45:57;;;;;;;1.98;0.75;;;10.40;99.90;;;;;;6670118;89;20774;-76
2021/10/01 02:56:17;;;;;;;3.97;0.82;;;10.40;99.90;;;;;;6668858;89;20238;-77
2021/10/01 03:06:23;;;;;;;2.47;0.80;;;10.50;99.90;;;;;;6672195;89;20315;-77
2021/10/01 03:16:25;;;;;;;6.07;0.75;;;10.40;99.90;;;;;;6673593;89;20212;-80
2021/10/01 03:26:27;;;;;;;4.65;1.37;;;10.40;99.90;;;;;;6672634;88;20277;-80
2021/10/01 03:36:27;;;;;;;3.65;1.10;;;10.40;99.90;;;;;;6674376;89;20184;-79
2021/10/01 03:46:28;;;;;;;5.80;1.00;;;10.30;99.90;;;;;;6669403;88;20202;-80
2021/10/01 03:56:28;;;;;;;2.40;0.62;;;10.30;99.90;;;;;;6671998;88;20601;-79
2021/10/01 04:06:29;;;;;;;4.03;0.75;;;10.30;99.90;;;;;;6678125;78;20226;-77
2021/10/01 04:16:29;;;;;;;3.55;0.85;;;10.30;99.90;;;;;;6679676;88;20200;-77
2021/10/01 04:26:30;;;;;;;3.35;0.80;;;10.20;99.90;;;;;;6682632;88;20245;-78
2021/10/01 04:36:32;;;;;;;3.10;0.80;;;10.00;99.90;;;;;;6688675;89;20579;-77
2021/10/01 04:46:33;;;;;;;3.35;0.80;;;10.00;99.90;;;;;;6685582;89;21371;-76
2021/10/01 04:56:33;;;;;;;2.80;0.70;;;9.90;99.90;;;;;;6685630;88;20207;-78
2021/10/01 05:06:34;;;;;;;3.90;1.00;;;9.80;99.90;;;;;;6694096;88;20224;-77
2021/10/01 05:16:34;;;;;;;3.75;1.00;;;9.80;99.90;;;;;;6684543;89;20183;-76
2021/10/01 05:26:35;;;;;;;1.83;0.70;;;9.80;99.90;;;;;;6687103;88;20202;-78
2021/10/01 05:36:36;;;;;;;2.65;0.90;;;9.80;99.90;;;;;;6683597;89;20371;-78
2021/10/01 05:46:45;;;;;;;3.17;1.05;;;9.70;99.90;;;;;;6680019;88;20197;-78
2021/10/01 05:56:45;;;;;;;2.25;0.80;;;9.70;99.90;;;;;;6678495;89;20219;-77
2021/10/01 06:06:46;;;;;;;3.40;0.80;;;9.80;99.90;;;;;;6676362;89;20220;-77
2021/10/01 06:16:47;;;;;;;2.80;0.80;;;9.90;99.90;;;;;;6684688;88;20228;-76
2021/10/01 06:26:48;;;;;;;3.60;1.00;;;9.90;99.90;;;;;;6685182;88;22849;-77
2021/10/01 06:36:48;;;;;;;3.55;0.90;;;9.90;99.90;;;;;;6684316;89;20178;-77
2021/10/01 06:46:52;;;;;;;4.23;1.17;;;10.00;99.90;;;;;;6682800;88;20221;-77
2021/10/01 08:19:28;;;;;;;2.22;0.70;;;14.00;99.90;;;;;;6679971;88;20240;-77
2021/10/01 08:29:29;;;;;;;3.80;1.15;;;13.80;99.90;;;;;;6681378;88;20192;-78
2021/10/01 08:39:30;;;;;;;1.77;0.62;;;14.60;99.90;;;;;;6683699;89;20253;-77
2021/10/01 08:49:32;;;;;;;2.80;0.85;;;14.30;99.90;;;;;;6685031;88;20365;-77
2021/10/01 08:59:33;;;;;;;5.93;0.60;;;15.00;99.90;;;;;;6679967;88;20201;-77
2021/10/01 09:09:40;;;;;;;3.62;0.98;;;15.00;99.90;;;;;;6683387;87;20227;-77
2021/10/01 09:19:41;;;;;;;2.55;0.70;;;14.20;99.90;;;;;;6682407;88;20179;-77
2021/10/01 09:29:42;;;;;;;4.15;0.93;;;14.10;99.90;;;;;;6685281;88;20197;-76
2021/10/01 09:39:52;;;;;;;1.95;0.85;;;14.40;99.90;;;;;;6679511;89;20176;-76
2021/10/01 09:50:05;;;;;;;1.92;0.77;;;14.50;99.90;;;;;;6680556;88;20662;-76
2021/10/01 10:00:06;;;;;;;4.12;0.90;;;14.60;99.90;;;;;;6679952;89;20176;-76
2021/10/01 10:10:08;;;;;;;4.87;0.90;;;14.40;99.90;;;;;;6677633;89;20370;-76
2021/10/01 10:20:09;;;;;;;5.20;0.98;;;14.60;99.90;;;;;;6680745;88;20264;-77
2021/10/01 10:30:11;;;;;;;4.53;1.00;;;14.70;99.90;;;;;;6676608;88;20324;-75
2021/10/01 10:40:13;;;;;;;2.92;0.80;;;15.20;99.90;;;;;;6675735;88;20208;-75
2021/10/01 10:50:34;;;;;;;6.62;1.00;;;16.50;99.90;;;;;;6675717;87;20258;-76
2021/10/01 11:00:40;;;;;;;3.47;1.17;;;17.80;99.90;;;;;;6669543;88;20655;-75
2021/10/01 11:10:44;;;;;;;5.62;0.90;;;18.10;99.90;;;;;;6663950;89;20300;-75
2021/10/01 11:20:45;;;;;;;2.72;0.80;;;19.50;99.90;;;;;;6670049;89;20217;-75
2021/10/01 11:30:53;;;;;;;2.55;0.82;;;19.30;99.90;;;;;;6671628;88;20219;-75
2021/10/01 11:41:05;;;;;;;2.83;0.80;;;19.80;99.20;;;;;;6676255;88;20251;-75
2021/10/01 11:51:11;;;;;;;1.20;0.60;;;19.90;97.20;;;;;;6671085;78;20200;-74
2021/10/01 12:01:18;;;;;;;2.62;0.70;;;20.80;93.50;;;;;;6661415;88;20674;-75
2021/10/01 12:11:25;;;;;;;1.92;0.70;;;20.40;92.00;;;;;;6657874;88;20215;-75
2021/10/01 12:21:28;;;;;;;5.03;0.68;;;21.50;90.00;;;;;;6654194;88;20245;-76
2021/10/01 12:31:35;;;;;;;2.07;0.50;;;22.10;86.90;;;;;;6664282;88;20908;-76
2021/10/01 12:41:36;;;;;;;2.72;0.80;;;22.00;86.80;;;;;;6651860;88;20285;-76
2021/10/01 12:51:36;;;;;;;1.77;0.60;;;22.00;84.80;;;;;;6659489;88;21068;-75
2021/10/01 13:01:37;;;;;;;1.90;0.75;;;22.00;84.90;;;;;;6648739;88;20287;-75
2021/10/01 13:11:50;;;;;;;2.80;0.80;;;20.80;87.30;;;;;;6654075;88;20679;-75
2021/10/01 13:21:56;;;;;;;3.15;0.90;;;20.40;89.50;;;;;;6656812;88;20943;-75
2021/10/01 13:31:58;;;;;;;1.83;0.60;;;20.10;90.10;;;;;;6650093;88;20699;-76
2021/10/01 13:41:58;;;;;;;2.12;0.60;;;19.70;90.70;;;;;;6653296;88;20337;-76
2021/10/01 13:51:59;;;;;;;2.28;0.50;;;21.20;88.80;;;;;;6656514;88;20683;-76
2021/10/01 14:01:59;;;;;;;2.17;0.70;;;21.40;87.40;;;;;;6647799;88;20619;-75
2021/10/01 14:12:00;;;;;;;3.37;0.82;;;21.00;88.50;;;;;;6651539;88;20242;-76
2021/10/01 14:22:01;;;;;;;2.00;0.98;;;20.90;88.60;;;;;;6665542;88;20189;-75
2021/10/01 14:32:02;;;;;;;1.83;0.60;;;19.90;89.00;;;;;;6658963;88;20234;-76
2021/10/01 14:42:03;;;;;;;2.08;0.70;;;19.60;88.60;;;;;;6654941;88;20639;-75
2021/10/01 14:52:04;;;;;;;2.60;0.70;;;19.50;90.30;;;;;;6651013;88;20257;-78
2021/10/01 15:02:06;;;;;;;1.85;0.80;;;19.30;89.70;;;;;;6653695;88;20526;-76
2021/10/01 15:12:07;;;;;;;3.45;0.80;;;19.10;91.10;;;;;;6647957;88;20214;-74
2021/10/01 15:22:08;;;;;;;1.85;0.65;;;18.60;93.40;;;;;;6657411;88;20196;-75
2021/10/01 15:32:08;;;;;;;1.73;0.80;;;18.20;91.90;;;;;;6659225;88;20203;-76
2021/10/01 15:42:09;;;;;;;3.83;0.93;;;18.10;92.70;;;;;;6650681;88;20322;-76
2021/10/01 15:52:09;;;;;;;3.20;0.60;;;17.90;93.50;;;;;;6656771;88;20278;-76
2021/10/01 16:02:10;;;;;;;2.20;1.17;;;17.90;93.70;;;;;;6659223;88;20708;-75
2021/10/01 16:12:10;;;;;;;4.28;0.90;;;17.70;94.80;;;;;;6653656;88;20193;-75
2021/10/01 16:22:12;;;;;;;3.67;1.20;;;17.50;96.00;;;;;;6660768;88;20209;-75
2021/10/01 16:32:13;;;;;;;3.35;1.10;;;17.30;97.00;;;;;;6653001;88;20200;-75
2021/10/01 16:42:13;;;;;;;4.62;1.33;;;17.20;97.50;;;;;;6655104;88;20268;-76
2021/10/01 16:52:14;;;;;;;4.62;1.80;;;17.10;98.00;;;;;;6649993;89;20726;-75
2021/10/01 17:02:14;;;;;;;4.55;1.40;;;17.00;98.80;;;;;;6668020;88;20195;-76
2021/10/01 17:12:15;;;;;;;5.07;1.30;;;16.90;99.30;;;;;;6657708;89;20195;-76
2021/10/01 17:22:16;;;;;;;4.80;1.30;;;16.70;99.90;;;;;;6646951;88;20257;-76
2021/10/01 17:32:17;;;;;;;3.60;1.30;;;16.50;99.90;;;;;;6683204;88;20667;-77
2021/10/01 17:42:17;;;;;;;3.92;1.35;;;16.40;99.90;;;;;;6655982;89;20623;-76
2021/10/01 17:52:18;;;;;;;3.97;1.30;;;16.30;99.90;;;;;;6653613;89;20216;-75
2021/10/01 18:02:19;;;;;;;3.72;1.20;;;16.30;99.90;;;;;;6687161;78;20220;-78
2021/10/01 18:12:19;;;;;;;2.35;1.20;;;16.20;99.90;;;;;;6665800;88;20270;-78
2021/10/01 18:22:24;;;;;;;2.45;0.90;;;16.10;99.90;;;;;;6671602;89;20224;-80
2021/10/01 18:32:25;;;;;;;4.93;1.20;;;16.10;99.90;;;;;;6673003;89;20191;-81
2021/10/01 18:42:26;;;;;;;2.97;1.23;;;16.00;99.90;;;;;;6668869;88;20539;-80
2021/10/01 18:52:26;;;;;;;2.47;1.45;;;15.90;99.90;;;;;;6668383;89;20574;-78
2021/10/01 19:02:27;;;;;;;3.53;1.60;;;15.90;99.90;;;;;;6674860;89;20233;-80
2021/10/01 19:12:28;;;;;;;3.97;1.30;;;15.90;99.90;;;;;;6678268;89;20691;-80
2021/10/01 19:22:34;;;;;;;2.53;1.20;;;15.80;99.90;;;;;;6679258;89;20182;-79
2021/10/01 19:32:35;;;;;;;4.90;1.20;;;15.70;99.90;;;;;;6679569;89;20190;-79
2021/10/01 19:42:36;;;;;;;4.40;1.10;;;15.80;99.90;;;;;;6677219;89;20216;-78
2021/10/01 19:52:37;;;;;;;5.25;1.45;;;15.90;99.90;;;;;;6667042;89;20209;-77
2021/10/01 20:02:40;;;;;;;3.65;1.00;;;16.00;99.90;;;;;;6665818;89;20753;-77
2021/10/01 20:12:41;;;;;;;4.18;1.30;;;16.10;99.90;;;;;;6665499;89;20299;-80
2021/10/01 20:22:54;;;;;;;3.08;0.93;;;16.00;99.90;;;;;;6665341;89;21058;-77
2021/10/01 20:53:33;;;;;;;2.55;1.08;;;15.90;99.90;;;;;;6648269;89;21086;-77
2021/10/01 21:45:16;;;;;;;4.32;1.30;;;13.80;99.90;;;;;;6651299;89;20268;-77
2021/10/01 21:55:17;;;;;;;4.70;1.40;;;13.60;99.90;;;;;;6660637;89;20199;-79
2021/10/01 22:25:33;;;;;;;4.72;1.90;;;13.40;99.90;;;;;;6670229;89;20209;-77
2021/10/01 22:35:34;;;;;;;6.75;1.87;;;13.30;99.90;;;;;;6666113;89;20199;-76
2021/10/01 22:45:37;;;;;;;6.10;2.00;;;13.00;99.90;;;;;;6663387;88;20261;-78
2021/10/01 22:55:38;;;;;;;5.87;2.10;;;12.90;99.90;;;;;;6666142;89;20216;-76
2021/10/01 23:05:41;;;;;;;4.80;2.35;;;12.90;99.90;;;;;;6661507;89;20213;-76
2021/10/01 23:16:13;;;;;;;5.22;1.98;;;12.90;99.90;;;;;;6654148;89;20644;-77
